createdAt,value
2023-03-12T00:06:20.980Z,14.05
2023-03-12T00:08:49.374Z,13.13
2023-03-12T00:11:18.582Z,13.32
2023-03-12T00:13:46.375Z,13.93
2023-03-12T00:16:15.878Z,13.98
2023-03-12T00:18:43.848Z,12.83
2023-03-12T00:21:13.554Z,11.23
2023-03-12T00:23:42.454Z,11.80
2023-03-12T00:26:11.594Z,14.52
2023-03-12T00:28:39.312Z,16.30
2023-03-12T00:31:20.588Z,18.33
2023-03-12T00:33:53.013Z,15.77
2023-03-12T00:36:24.873Z,11.10
2023-03-12T00:38:54.229Z,12.27
2023-03-12T00:41:22.821Z,12.45
2023-03-12T00:43:53.393Z,13.35
2023-03-12T00:46:24.628Z,16.38
2023-03-12T00:48:55.707Z,17.52
2023-03-12T00:51:24.826Z,12.52
2023-03-12T00:53:53.494Z,13.82
2023-03-12T00:56:22.406Z,15.05
2023-03-12T00:58:50.417Z,12.02
2023-03-12T01:01:21.880Z,10.40
2023-03-12T01:03:52.701Z,11.35
2023-03-12T01:06:22.121Z,12.73
2023-03-12T01:08:49.907Z,12.77
2023-03-12T01:11:21.366Z,12.70
2023-03-12T01:13:49.666Z,10.90
2023-03-12T01:16:18.753Z,12.95
2023-03-12T01:18:46.930Z,13.40
2023-03-12T01:21:14.933Z,14.57
2023-03-12T01:23:42.870Z,13.80
2023-03-12T01:26:10.729Z,8.88
2023-03-12T01:28:39.466Z,11.05
2023-03-12T01:31:08.562Z,9.32
2023-03-12T01:33:36.420Z,10.68
2023-03-12T01:36:04.518Z,12.00
2023-03-12T01:38:32.563Z,17.00
2023-03-12T01:41:00.201Z,12.50
2023-03-12T01:43:32.359Z,12.10
2023-03-12T01:46:00.884Z,9.60
2023-03-12T01:48:30.654Z,10.82
2023-03-12T01:50:58.389Z,14.20
2023-03-12T01:53:26.104Z,9.93
2023-03-12T01:55:53.699Z,9.75
2023-03-12T01:58:22.442Z,12.43
2023-03-12T02:00:52.562Z,9.00
2023-03-12T02:03:21.157Z,11.60
2023-03-12T02:05:55.447Z,14.10
2023-03-12T02:08:24.175Z,9.90
2023-03-12T02:10:52.446Z,10.90
2023-03-12T02:13:20.465Z,12.90
2023-03-12T02:15:49.848Z,18.13
2023-03-12T02:18:23.488Z,14.20
2023-03-12T02:20:57.666Z,9.45
2023-03-12T02:23:33.212Z,7.93
2023-03-12T02:26:02.803Z,14.65
2023-03-12T02:28:31.005Z,10.50
2023-03-12T02:31:01.186Z,12.63
2023-03-12T02:33:29.144Z,11.48
2023-03-12T02:35:57.105Z,13.50
2023-03-12T02:38:29.527Z,9.38
2023-03-12T02:40:59.140Z,9.93
2023-03-12T02:43:26.969Z,9.52
2023-03-12T02:45:56.690Z,14.15
2023-03-12T02:48:24.532Z,10.63
2023-03-12T02:50:53.872Z,9.48
2023-03-12T02:53:22.368Z,13.10
2023-03-12T02:55:51.555Z,10.00
2023-03-12T02:58:19.229Z,15.40
2023-03-12T03:00:46.885Z,10.63
2023-03-12T03:03:14.491Z,8.77
2023-03-12T03:05:42.794Z,10.75
2023-03-12T03:08:10.687Z,15.60
2023-03-12T03:10:38.436Z,13.25
2023-03-12T03:13:06.317Z,7.43
2023-03-12T03:15:34.084Z,12.18
2023-03-12T03:18:04.048Z,10.90
2023-03-12T03:20:33.093Z,13.47
2023-03-12T03:23:00.720Z,13.10
2023-03-12T03:25:28.362Z,12.30
2023-03-12T03:27:56.049Z,6.88
2023-03-12T03:30:24.973Z,10.55
2023-03-12T03:32:54.326Z,16.60
2023-03-12T03:35:24.271Z,11.15
2023-03-12T03:37:53.293Z,9.10
2023-03-12T03:40:21.382Z,13.38
2023-03-12T03:42:49.102Z,11.98
2023-03-12T03:45:18.146Z,11.02
2023-03-12T03:47:45.917Z,60.75
2023-03-12T03:50:13.893Z,10.18
2023-03-12T03:52:42.647Z,13.38
2023-03-12T03:55:10.646Z,15.55
2023-03-12T03:57:38.935Z,14.88
2023-03-12T04:00:10.159Z,17.83
2023-03-12T04:02:46.047Z,8.43
2023-03-12T04:05:19.718Z,10.15
2023-03-12T04:07:49.338Z,15.18
2023-03-12T04:10:24.769Z,12.25
2023-03-12T04:12:53.878Z,12.23
2023-03-12T04:15:22.485Z,11.43
2023-03-12T04:17:51.248Z,13.10
2023-03-12T04:20:19.441Z,12.70
2023-03-12T04:22:47.486Z,8.60
2023-03-12T04:25:15.762Z,9.35
2023-03-12T04:27:43.404Z,17.73
2023-03-12T04:30:11.788Z,11.18
2023-03-12T04:32:40.000Z,8.48
2023-03-12T04:35:07.904Z,15.68
2023-03-12T04:37:35.648Z,12.48
2023-03-12T04:40:07.678Z,12.20
2023-03-12T04:42:36.038Z,9.32
2023-03-12T04:45:07.808Z,17.52
2023-03-12T04:47:39.891Z,14.63
2023-03-12T04:50:08.660Z,10.93
2023-03-12T04:52:36.579Z,18.27
2023-03-12T04:55:06.621Z,13.23
2023-03-12T04:57:34.205Z,14.43
2023-03-12T05:00:01.941Z,10.77
2023-03-12T05:02:31.193Z,14.50
2023-03-12T05:04:59.604Z,12.60
2023-03-12T05:07:27.458Z,12.38
2023-03-12T05:09:58.183Z,11.75
2023-03-12T05:12:25.861Z,9.68
2023-03-12T05:14:56.821Z,12.70
2023-03-12T05:17:25.305Z,12.68
2023-03-12T05:19:53.265Z,14.93
2023-03-12T05:22:21.525Z,9.50
2023-03-12T05:24:49.328Z,17.35
2023-03-12T05:27:19.652Z,12.47
2023-03-12T05:29:47.516Z,10.45
2023-03-12T05:32:15.806Z,12.35
2023-03-12T05:34:44.813Z,13.80
2023-03-12T05:37:12.946Z,11.18
2023-03-12T05:39:46.888Z,15.30
2023-03-12T05:42:16.647Z,10.10
2023-03-12T05:44:45.226Z,7.90
2023-03-12T05:47:16.665Z,10.77
2023-03-12T05:49:44.386Z,12.43
2023-03-12T05:52:12.848Z,9.10
2023-03-12T05:54:42.257Z,15.27
2023-03-12T05:57:10.918Z,17.55
2023-03-12T05:59:39.076Z,11.00
2023-03-12T06:02:10.598Z,13.88
2023-03-12T06:04:39.448Z,9.68
2023-03-12T06:07:07.588Z,20.73
2023-03-12T06:09:36.708Z,11.85
2023-03-12T06:12:04.519Z,11.38
2023-03-12T06:14:32.653Z,8.07
2023-03-12T06:17:01.867Z,11.63
2023-03-12T06:19:29.774Z,15.50
2023-03-12T06:21:59.459Z,14.13
2023-03-12T06:24:28.515Z,12.38
2023-03-12T06:27:02.998Z,14.73
2023-03-12T06:29:30.806Z,9.43
2023-03-12T06:31:58.585Z,17.33
2023-03-12T06:34:26.222Z,19.48
2023-03-12T06:36:53.822Z,11.50
2023-03-12T06:39:22.308Z,14.75
2023-03-12T06:41:49.844Z,10.32
2023-03-12T06:44:18.063Z,8.93
2023-03-12T06:46:45.516Z,15.18
2023-03-12T06:49:13.212Z,13.02
2023-03-12T06:51:41.064Z,15.18
2023-03-12T06:54:08.653Z,10.82
2023-03-12T06:59:07.484Z,15.10
2023-03-12T07:01:35.383Z,18.92
2023-03-12T07:04:02.963Z,20.40
2023-03-12T07:06:31.168Z,21.98
2023-03-12T07:08:58.614Z,19.52
2023-03-12T07:11:26.324Z,19.95
2023-03-12T07:13:54.093Z,20.88
2023-03-12T07:16:22.507Z,17.65
2023-03-12T07:18:53.009Z,11.95
2023-03-12T07:21:24.136Z,15.13
2023-03-12T07:23:52.594Z,20.02
2023-03-12T07:26:22.623Z,20.08
2023-03-12T07:28:54.286Z,22.95
2023-03-12T07:31:22.452Z,14.15
2023-03-12T07:33:50.148Z,20.10
2023-03-12T07:36:18.872Z,18.00
2023-03-12T07:38:46.874Z,19.17
2023-03-12T07:41:15.114Z,16.95
2023-03-12T07:43:42.958Z,24.85
2023-03-12T07:46:10.450Z,27.77
2023-03-12T07:48:38.725Z,19.58
2023-03-12T07:51:06.604Z,15.00
2023-03-12T07:53:34.288Z,20.80
2023-03-12T07:56:02.898Z,19.17
2023-03-12T07:58:31.609Z,21.77
2023-03-12T08:00:59.363Z,22.88
2023-03-12T08:03:27.097Z,20.30
2023-03-12T08:06:00.449Z,16.77
2023-03-12T08:08:29.450Z,18.17
2023-03-12T08:10:57.286Z,22.75
2023-03-12T08:13:25.300Z,19.40
2023-03-12T08:15:55.214Z,17.70
2023-03-12T08:18:23.364Z,18.85
2023-03-12T08:20:55.180Z,24.40
2023-03-12T08:23:23.432Z,22.60
2023-03-12T08:25:52.293Z,27.88
2023-03-12T08:28:21.495Z,25.38
2023-03-12T08:30:50.090Z,24.05
2023-03-12T08:33:19.636Z,19.60
2023-03-12T08:35:47.576Z,24.92
2023-03-12T08:38:17.381Z,25.70
2023-03-12T08:40:45.498Z,20.00
2023-03-12T08:43:13.859Z,21.75
2023-03-12T08:45:44.658Z,17.50
2023-03-12T08:48:13.027Z,23.50
2023-03-12T08:50:40.914Z,24.13
2023-03-12T08:53:08.526Z,18.17
2023-03-12T08:55:36.744Z,16.33
2023-03-12T08:58:04.896Z,26.92
2023-03-12T09:00:34.732Z,23.60
2023-03-12T09:03:02.404Z,24.67
2023-03-12T09:05:30.800Z,23.55
2023-03-12T09:08:00.150Z,24.75
2023-03-12T09:10:30.771Z,27.83
2023-03-12T09:12:59.034Z,27.85
2023-03-12T09:15:27.096Z,27.08
2023-03-12T09:17:55.877Z,25.95
2023-03-12T09:20:26.180Z,26.17
2023-03-12T09:22:53.776Z,27.70
2023-03-12T09:25:23.706Z,27.88
2023-03-12T09:27:52.640Z,28.73
2023-03-12T09:30:22.590Z,33.08
2023-03-12T09:32:50.592Z,31.02
2023-03-12T09:35:19.035Z,31.88
2023-03-12T09:37:49.059Z,29.45
2023-03-12T09:40:18.193Z,29.23
2023-03-12T09:42:52.269Z,34.95
2023-03-12T09:45:23.674Z,36.20
2023-03-12T09:47:56.198Z,31.67
2023-03-12T09:50:34.722Z,38.03
2023-03-12T09:53:22.750Z,41.67
2023-03-12T09:55:52.760Z,41.92
2023-03-12T09:58:21.503Z,43.67
2023-03-12T10:00:49.454Z,48.90
2023-03-12T10:06:13.174Z,44.05
2023-03-12T10:08:51.102Z,47.65
2023-03-12T10:11:37.512Z,54.92
2023-03-12T10:14:16.111Z,49.15
2023-03-12T10:17:13.605Z,60.38
2023-03-12T10:22:14.446Z,56.08
2023-03-12T10:24:57.985Z,58.95
2023-03-12T10:27:28.647Z,61.08
2023-03-12T10:29:57.672Z,60.55
2023-03-12T10:32:37.737Z,60.38
2023-03-12T10:35:15.995Z,62.72
2023-03-12T10:37:50.064Z,69.10
2023-03-12T10:40:21.552Z,70.68
2023-03-12T10:42:49.524Z,62.88
2023-03-12T10:45:24.166Z,66.05
2023-03-12T10:48:03.959Z,69.10
2023-03-12T10:50:33.280Z,62.90
2023-03-12T10:53:20.098Z,58.60
2023-03-12T10:56:06.296Z,59.53
2023-03-12T10:58:35.705Z,62.10
2023-03-12T11:01:04.243Z,62.85
2023-03-12T11:03:33.938Z,56.80
2023-03-12T11:06:02.947Z,60.38
2023-03-12T11:08:30.709Z,57.58
2023-03-12T11:10:59.569Z,55.13
2023-03-12T11:13:34.363Z,56.28
2023-03-12T11:16:04.259Z,55.78
2023-03-12T11:18:33.625Z,52.50
2023-03-12T11:21:10.322Z,56.00
2023-03-12T11:23:39.413Z,44.58
2023-03-12T11:26:12.854Z,50.15
2023-03-12T11:28:52.586Z,51.92
2023-03-12T11:31:23.169Z,51.05
2023-03-12T11:33:53.010Z,49.45
2023-03-12T11:36:40.774Z,45.00
2023-03-12T11:39:16.022Z,54.83
2023-03-12T11:42:00.982Z,45.33
2023-03-12T11:44:32.643Z,41.63
2023-03-12T11:47:00.524Z,48.35
2023-03-12T11:49:47.857Z,54.13
2023-03-12T11:52:33.499Z,49.97
2023-03-12T11:55:18.423Z,51.42
2023-03-12T11:57:49.380Z,51.90
2023-03-12T12:00:18.514Z,49.85
2023-03-12T12:03:02.041Z,38.70
2023-03-12T12:05:48.696Z,46.03
2023-03-12T12:08:31.790Z,39.15
2023-03-12T12:11:03.595Z,44.83
2023-03-12T12:13:53.995Z,43.42
2023-03-12T12:16:24.614Z,41.72
2023-03-12T12:19:04.537Z,50.95
2023-03-12T12:21:44.910Z,56.40
2023-03-12T12:24:23.704Z,50.55
2023-03-12T12:26:55.281Z,45.42
2023-03-12T12:29:27.142Z,46.92
2023-03-12T12:31:59.195Z,47.92
2023-03-12T12:34:33.349Z,51.08
2023-03-12T12:37:19.508Z,57.97
2023-03-12T12:39:49.580Z,58.10
2023-03-12T12:42:43.285Z,65.43
2023-03-12T12:45:14.580Z,55.53
2023-03-12T12:47:47.993Z,58.38
2023-03-12T12:50:19.164Z,64.85
2023-03-12T12:52:52.670Z,55.80
2023-03-12T12:55:27.693Z,60.80
2023-03-12T12:58:01.628Z,48.38
2023-03-12T13:01:05.084Z,47.00
2023-03-12T13:03:33.906Z,50.55
2023-03-12T13:06:03.446Z,46.65
2023-03-12T13:08:46.445Z,36.33
2023-03-12T13:11:20.431Z,50.95
2023-03-12T13:14:12.052Z,41.33
2023-03-12T13:19:16.705Z,45.67
2023-03-12T13:22:03.183Z,43.22
2023-03-12T13:24:46.050Z,47.03
2023-03-12T13:27:30.955Z,40.05
2023-03-12T13:29:58.580Z,50.75
2023-03-12T13:32:36.920Z,38.92
2023-03-12T13:35:16.904Z,25.30
2023-03-12T13:37:59.276Z,40.53
2023-03-12T13:40:30.048Z,43.13
2023-03-12T13:43:06.851Z,38.67
2023-03-12T13:45:35.591Z,41.65
2023-03-12T13:48:06.410Z,35.70
2023-03-12T13:50:34.733Z,39.58
2023-03-12T13:53:07.118Z,31.58
2023-03-12T13:55:35.810Z,34.05
2023-03-12T13:58:09.593Z,36.13
2023-03-12T14:00:41.799Z,41.47
2023-03-12T14:03:15.844Z,42.17
2023-03-12T14:05:55.939Z,36.80
2023-03-12T14:08:30.039Z,31.48
2023-03-12T14:11:01.584Z,29.70
2023-03-12T14:13:37.215Z,43.80
2023-03-12T14:16:11.081Z,40.78
2023-03-12T14:18:39.829Z,36.25
2023-03-12T14:21:09.629Z,32.63
2023-03-12T14:23:41.897Z,35.40
2023-03-12T14:26:19.947Z,35.92
2023-03-12T14:28:51.350Z,36.85
2023-03-12T14:33:53.146Z,35.92
2023-03-12T14:36:23.057Z,38.65
2023-03-12T14:39:01.171Z,39.08
2023-03-12T14:41:30.275Z,25.55
2023-03-12T14:44:05.802Z,29.60
2023-03-12T14:46:33.537Z,30.83
2023-03-12T14:49:01.768Z,26.00
2023-03-12T14:51:30.516Z,34.45
2023-03-12T14:54:02.933Z,37.65
2023-03-12T14:56:33.460Z,40.50
2023-03-12T15:01:31.225Z,29.85
2023-03-12T15:04:08.872Z,32.17
2023-03-12T15:06:37.391Z,42.50
2023-03-12T15:09:06.736Z,34.90
2023-03-12T15:11:35.698Z,58.05
2023-03-12T15:14:16.068Z,49.13
2023-03-12T15:16:45.431Z,40.75
2023-03-12T15:19:14.729Z,34.72
2023-03-12T15:21:42.733Z,43.65
2023-03-12T15:24:13.610Z,46.63
2023-03-12T15:26:43.493Z,46.60
2023-03-12T15:29:31.423Z,44.20
2023-03-12T15:32:00.597Z,43.75
2023-03-12T15:34:33.261Z,48.30
2023-03-12T15:37:20.042Z,41.13
2023-03-12T15:39:51.419Z,46.80
2023-03-12T15:42:21.119Z,45.77
2023-03-12T15:44:58.180Z,55.47
2023-03-12T15:47:31.960Z,41.58
2023-03-12T15:50:05.307Z,45.40
2023-03-12T15:52:35.006Z,43.60
2023-03-12T15:55:07.362Z,50.38
2023-03-12T15:57:35.785Z,45.50
2023-03-12T16:00:29.823Z,37.08
2023-03-12T16:03:06.210Z,38.92
2023-03-12T16:05:36.154Z,42.00
2023-03-12T16:08:16.096Z,41.28
2023-03-12T16:10:44.371Z,48.10
2023-03-12T16:13:14.760Z,46.88
2023-03-12T16:15:43.088Z,48.13
2023-03-12T16:18:18.128Z,53.03
2023-03-12T16:20:46.231Z,49.35
2023-03-12T16:23:14.384Z,68.63
2023-03-12T16:25:46.903Z,53.50
2023-03-12T16:28:15.642Z,47.95
2023-03-12T16:30:43.455Z,54.28
2023-03-12T16:33:15.167Z,50.67
2023-03-12T16:35:42.976Z,51.22
2023-03-12T16:38:11.179Z,49.17
2023-03-12T16:40:41.303Z,52.65
2023-03-12T16:43:14.750Z,55.03
2023-03-12T16:45:44.448Z,61.45
2023-03-12T16:48:15.433Z,59.33
2023-03-12T16:50:49.308Z,46.45
2023-03-12T16:53:17.178Z,49.67
2023-03-12T16:59:04.130Z,48.50
2023-03-12T17:01:31.849Z,49.55
2023-03-12T17:03:59.950Z,50.83
2023-03-12T17:06:28.195Z,53.38
2023-03-12T17:08:55.787Z,48.10
2023-03-12T17:11:25.478Z,41.47
2023-03-12T17:14:03.461Z,38.70
2023-03-12T17:16:32.751Z,38.10
2023-03-12T17:19:00.516Z,46.28
2023-03-12T17:21:28.562Z,49.65
2023-03-12T17:23:56.752Z,48.75
2023-03-12T17:26:24.390Z,45.15
2023-03-12T17:28:52.441Z,50.75
2023-03-12T17:31:21.358Z,49.15
2023-03-12T17:33:49.325Z,43.17
2023-03-12T17:36:17.056Z,43.95
2023-03-12T17:38:44.887Z,41.92
2023-03-12T17:41:25.542Z,42.50
2023-03-12T17:43:59.005Z,46.40
2023-03-12T17:46:26.995Z,52.53
2023-03-12T17:48:55.023Z,44.42
2023-03-12T17:51:23.708Z,53.08
2023-03-12T17:53:51.311Z,44.22
2023-03-12T17:56:19.349Z,43.58
2023-03-12T17:58:46.991Z,50.90
2023-03-12T18:01:15.811Z,37.25
2023-03-12T18:03:44.183Z,51.40
2023-03-12T18:06:12.374Z,42.80
2023-03-12T18:08:40.194Z,47.25
2023-03-12T18:11:07.773Z,41.00
2023-03-12T18:13:35.474Z,36.30
2023-03-12T18:16:03.104Z,49.08
2023-03-12T18:18:30.716Z,48.15
2023-03-12T18:20:58.231Z,48.38
2023-03-12T18:23:25.978Z,41.35
2023-03-12T18:25:54.072Z,44.55
2023-03-12T18:28:23.412Z,50.97
2023-03-12T18:30:52.215Z,48.47
2023-03-12T18:33:20.897Z,54.20
2023-03-12T18:35:49.065Z,46.75
2023-03-12T18:38:16.659Z,61.00
2023-03-12T18:40:45.131Z,55.60
2023-03-12T18:43:13.726Z,52.03
2023-03-12T18:45:45.161Z,43.53
2023-03-12T18:48:12.880Z,52.13
2023-03-12T18:50:40.802Z,60.17
2023-03-12T18:53:08.662Z,55.05
2023-03-12T18:55:37.146Z,36.83
2023-03-12T18:58:05.062Z,56.63
2023-03-12T19:00:34.080Z,57.58
2023-03-12T19:03:01.802Z,52.03
2023-03-12T19:05:29.760Z,50.03
2023-03-12T19:07:57.542Z,61.13
2023-03-12T19:10:25.161Z,55.53
2023-03-12T19:12:59.158Z,51.55
2023-03-12T19:15:27.372Z,50.92
2023-03-12T19:17:56.620Z,73.32
2023-03-12T19:20:25.806Z,54.03
2023-03-12T19:22:54.059Z,42.40
2023-03-12T19:25:22.616Z,57.33
2023-03-12T19:27:53.340Z,42.95
2023-03-12T19:32:52.665Z,56.22
2023-03-12T19:35:21.422Z,53.53
2023-03-12T19:37:49.005Z,42.97
2023-03-12T19:40:16.822Z,55.47
2023-03-12T19:42:45.217Z,49.55
2023-03-12T19:45:14.065Z,40.22
2023-03-12T19:47:42.155Z,48.22
2023-03-12T19:50:11.073Z,61.35
2023-03-12T19:52:40.128Z,44.20
2023-03-12T19:55:09.020Z,38.22
2023-03-12T19:57:41.232Z,37.97
2023-03-12T20:00:12.988Z,48.15
2023-03-12T20:02:41.015Z,40.20
2023-03-12T20:05:09.297Z,45.75
2023-03-12T20:07:37.284Z,43.42
2023-03-12T20:10:06.564Z,47.83
2023-03-12T20:12:34.673Z,60.20
2023-03-12T20:15:02.406Z,48.92
2023-03-12T20:17:29.974Z,54.08
2023-03-12T20:19:58.221Z,48.22
2023-03-12T20:22:26.399Z,44.72
2023-03-12T20:24:55.317Z,46.38
2023-03-12T20:27:23.893Z,60.55
2023-03-12T20:29:53.021Z,41.95
2023-03-12T20:32:23.353Z,57.95
2023-03-12T20:34:52.174Z,56.03
2023-03-12T20:37:19.785Z,55.28
2023-03-12T20:39:47.539Z,47.20
2023-03-12T20:42:15.238Z,44.15
2023-03-12T20:44:42.981Z,45.40
2023-03-12T20:47:10.499Z,46.72
2023-03-12T20:49:38.852Z,47.70
2023-03-12T20:52:07.651Z,46.80
2023-03-12T20:54:40.525Z,48.47
2023-03-12T20:57:12.642Z,53.90
2023-03-12T20:59:40.701Z,47.22
2023-03-12T21:02:09.064Z,54.67
2023-03-12T21:04:37.161Z,49.10
2023-03-12T21:07:04.630Z,51.78
2023-03-12T21:09:32.172Z,49.30
2023-03-12T21:11:59.773Z,45.60
2023-03-12T21:14:30.258Z,38.50
2023-03-12T21:16:57.988Z,39.05
2023-03-12T21:19:27.240Z,51.72
2023-03-12T21:21:54.868Z,41.70
2023-03-12T21:24:24.097Z,41.63
2023-03-12T21:26:52.764Z,40.85
2023-03-12T21:29:22.693Z,35.67
2023-03-12T21:31:53.897Z,52.30
2023-03-12T21:34:23.188Z,45.22
2023-03-12T21:36:51.291Z,51.22
2023-03-12T21:39:19.116Z,54.95
2023-03-12T21:41:46.668Z,52.83
2023-03-12T21:44:16.392Z,39.20
2023-03-12T21:46:44.563Z,40.45
2023-03-12T21:49:14.202Z,48.17
2023-03-12T21:51:42.055Z,48.78
2023-03-12T21:54:09.862Z,44.60
2023-03-12T21:56:37.313Z,56.00
2023-03-12T21:59:05.013Z,55.10
2023-03-12T22:01:33.320Z,40.72
2023-03-12T22:04:03.374Z,50.17
2023-03-12T22:06:31.507Z,46.28
2023-03-12T22:08:59.150Z,42.85
2023-03-12T22:11:26.764Z,44.70
2023-03-12T22:13:55.322Z,43.92
2023-03-12T22:16:23.594Z,34.67
2023-03-12T22:18:52.543Z,56.45
2023-03-12T22:21:22.639Z,33.15
2023-03-12T22:23:54.923Z,37.95
2023-03-12T22:26:25.398Z,48.80
2023-03-12T22:31:22.776Z,44.00
2023-03-12T22:33:52.757Z,40.72
2023-03-12T22:36:21.468Z,42.95
2023-03-12T22:38:49.465Z,37.72
2023-03-12T22:41:19.877Z,32.97
2023-03-12T22:43:48.375Z,33.20
2023-03-12T22:46:17.353Z,32.63
2023-03-12T22:48:46.116Z,34.30
2023-03-12T22:51:13.762Z,31.05
2023-03-12T22:53:41.338Z,35.42
2023-03-12T22:56:11.330Z,33.55
2023-03-12T22:58:39.167Z,34.60
2023-03-12T23:01:10.941Z,36.50
2023-03-12T23:03:39.672Z,35.83
2023-03-12T23:06:11.210Z,39.28
2023-03-12T23:08:39.996Z,35.97
2023-03-12T23:11:09.638Z,33.60
2023-03-12T23:13:38.798Z,44.30
2023-03-12T23:16:07.970Z,32.78
2023-03-12T23:18:35.941Z,31.20
2023-03-12T23:21:05.184Z,35.13
2023-03-12T23:23:33.210Z,40.22
2023-03-12T23:26:01.739Z,45.95
2023-03-12T23:28:29.945Z,34.20
2023-03-12T23:31:05.219Z,50.75
2023-03-12T23:33:33.378Z,35.70
2023-03-12T23:36:09.077Z,36.00
2023-03-12T23:38:37.740Z,38.65
2023-03-12T23:41:05.422Z,38.92
2023-03-12T23:43:33.173Z,39.45
2023-03-12T23:46:01.893Z,43.38
2023-03-12T23:48:30.325Z,35.92
2023-03-12T23:51:05.462Z,35.13
2023-03-12T23:53:33.452Z,31.30
2023-03-12T23:56:02.995Z,27.77
2023-03-12T23:58:32.272Z,44.05
